sensor_id;sensor_type;location;lat;lon;timestamp;pressure;altitude;pressure_sealevel;temperature;humidity
72794;BME280;63436;26.334;50.194;2023-05-19T00:00:05;100679.01;;;31.82;29.44
72794;BME280;63436;26.334;50.194;2023-05-19T00:02:31;100664.18;;;31.78;29.83
72794;BME280;63436;26.334;50.194;2023-05-19T00:05:00;100646.49;;;31.63;29.15
72794;BME280;63436;26.334;50.194;2023-05-19T00:07:29;100657.40;;;31.42;29.36
72794;BME280;63436;26.334;50.194;2023-05-19T00:09:46;100653.90;;;31.45;29.70
72794;BME280;63436;26.334;50.194;2023-05-19T00:12:12;100643.46;;;31.28;30.02
72794;BME280;63436;26.334;50.194;2023-05-19T00:14:36;100641.00;;;30.32;30.26
72794;BME280;63436;26.334;50.194;2023-05-19T00:17:01;100639.88;;;29.56;30.17
72794;BME280;63436;26.334;50.194;2023-05-19T00:19:32;100637.52;;;30.27;28.58
72794;BME280;63436;26.334;50.194;2023-05-19T00:21:52;100637.16;;;30.03;28.36
72794;BME280;63436;26.334;50.194;2023-05-19T00:24:17;100666.61;;;29.54;28.68
72794;BME280;63436;26.334;50.194;2023-05-19T00:26:43;100683.81;;;30.22;27.51
72794;BME280;63436;26.334;50.194;2023-05-19T00:29:08;100684.76;;;30.31;26.51
72794;BME280;63436;26.334;50.194;2023-05-19T00:31:33;100690.07;;;30.88;25.22
72794;BME280;63436;26.334;50.194;2023-05-19T00:33:59;100695.61;;;30.82;25.01
72794;BME280;63436;26.334;50.194;2023-05-19T00:36:24;100687.15;;;30.47;23.93
72794;BME280;63436;26.334;50.194;2023-05-19T00:38:49;100721.62;;;30.96;23.56
72794;BME280;63436;26.334;50.194;2023-05-19T00:41:15;100749.20;;;30.26;23.72
72794;BME280;63436;26.334;50.194;2023-05-19T00:43:40;100756.44;;;30.83;23.43
72794;BME280;63436;26.334;50.194;2023-05-19T00:46:07;100763.22;;;31.22;23.99
72794;BME280;63436;26.334;50.194;2023-05-19T00:48:31;100763.91;;;31.08;25.13
72794;BME280;63436;26.334;50.194;2023-05-19T00:50:57;100774.19;;;30.99;27.49
72794;BME280;63436;26.334;50.194;2023-05-19T00:53:22;100754.39;;;30.94;28.37
72794;BME280;63436;26.334;50.194;2023-05-19T00:55:47;100735.93;;;30.75;27.70
72794;BME280;63436;26.334;50.194;2023-05-19T00:58:13;100739.10;;;31.87;25.19
72794;BME280;63436;26.334;50.194;2023-05-19T01:00:38;100756.19;;;31.68;24.88
72794;BME280;63436;26.334;50.194;2023-05-19T01:03:04;100755.75;;;31.01;25.83
72794;BME280;63436;26.334;50.194;2023-05-19T01:05:29;100761.41;;;31.57;28.14
72794;BME280;63436;26.334;50.194;2023-05-19T01:07:54;100763.73;;;31.57;28.92
72794;BME280;63436;26.334;50.194;2023-05-19T01:12:45;100777.77;;;32.18;29.60
72794;BME280;63436;26.334;50.194;2023-05-19T01:15:11;100789.66;;;32.26;28.48
72794;BME280;63436;26.334;50.194;2023-05-19T01:17:43;100817.12;;;32.02;28.29
72794;BME280;63436;26.334;50.194;2023-05-19T01:20:07;100836.91;;;32.26;28.07
72794;BME280;63436;26.334;50.194;2023-05-19T01:22:39;100843.97;;;32.17;28.21
72794;BME280;63436;26.334;50.194;2023-05-19T01:32:18;100869.09;;;32.96;26.29
72794;BME280;63436;26.334;50.194;2023-05-19T01:34:44;100868.92;;;31.89;28.33
72794;BME280;63436;26.334;50.194;2023-05-19T01:37:07;100853.85;;;32.90;28.53
72794;BME280;63436;26.334;50.194;2023-05-19T01:39:33;100855.95;;;31.60;29.87
72794;BME280;63436;26.334;50.194;2023-05-19T01:41:59;100854.32;;;31.97;29.81
72794;BME280;63436;26.334;50.194;2023-05-19T01:44:24;100849.44;;;30.46;33.21
72794;BME280;63436;26.334;50.194;2023-05-19T01:46:51;100853.44;;;31.86;34.12
72794;BME280;63436;26.334;50.194;2023-05-19T01:49:17;100853.75;;;31.48;35.20
72794;BME280;63436;26.334;50.194;2023-05-19T01:51:43;100861.97;;;31.70;36.27
72794;BME280;63436;26.334;50.194;2023-05-19T01:54:10;100863.31;;;31.15;38.27
72794;BME280;63436;26.334;50.194;2023-05-19T01:56:41;100867.17;;;31.34;38.61
72794;BME280;63436;26.334;50.194;2023-05-19T01:59:10;100866.83;;;31.69;37.83
72794;BME280;63436;26.334;50.194;2023-05-19T02:01:31;100877.47;;;31.34;38.38
72794;BME280;63436;26.334;50.194;2023-05-19T02:04:01;100879.36;;;31.48;37.93
72794;BME280;63436;26.334;50.194;2023-05-19T02:06:29;100885.49;;;31.29;38.62
72794;BME280;63436;26.334;50.194;2023-05-19T02:08:54;100890.25;;;31.42;38.54
72794;BME280;63436;26.334;50.194;2023-05-19T02:11:18;100896.25;;;31.36;39.10
72794;BME280;63436;26.334;50.194;2023-05-19T02:13:42;100895.49;;;32.21;37.57
72794;BME280;63436;26.334;50.194;2023-05-19T02:16:11;100902.37;;;32.27;37.22
72794;BME280;63436;26.334;50.194;2023-05-19T02:18:32;100904.59;;;32.14;37.59
72794;BME280;63436;26.334;50.194;2023-05-19T02:20:57;100903.03;;;32.02;38.16
72794;BME280;63436;26.334;50.194;2023-05-19T02:23:24;100908.92;;;31.38;39.29
72794;BME280;63436;26.334;50.194;2023-05-19T02:25:50;100913.09;;;31.59;39.17
72794;BME280;63436;26.334;50.194;2023-05-19T02:28:17;100913.12;;;31.61;38.56
72794;BME280;63436;26.334;50.194;2023-05-19T02:30:43;100918.01;;;31.36;39.74
72794;BME280;63436;26.334;50.194;2023-05-19T02:33:09;100924.97;;;31.66;39.72
72794;BME280;63436;26.334;50.194;2023-05-19T02:35:36;100915.23;;;31.50;39.56
72794;BME280;63436;26.334;50.194;2023-05-19T02:38:02;100919.55;;;31.71;39.98
72794;BME280;63436;26.334;50.194;2023-05-19T02:40:28;100918.41;;;31.72;39.70
72794;BME280;63436;26.334;50.194;2023-05-19T02:42:54;100925.77;;;30.96;40.69
72794;BME280;63436;26.334;50.194;2023-05-19T02:45:20;100924.12;;;31.43;40.03
72794;BME280;63436;26.334;50.194;2023-05-19T02:47:46;100927.56;;;31.73;38.68
72794;BME280;63436;26.334;50.194;2023-05-19T02:50:12;100921.26;;;32.22;37.47
72794;BME280;63436;26.334;50.194;2023-05-19T02:52:38;100919.11;;;31.30;38.65
72794;BME280;63436;26.334;50.194;2023-05-19T02:55:05;100912.27;;;31.23;38.87
72794;BME280;63436;26.334;50.194;2023-05-19T02:57:33;100921.15;;;31.86;37.94
72794;BME280;63436;26.334;50.194;2023-05-19T02:59:57;100918.38;;;32.57;35.21
72794;BME280;63436;26.334;50.194;2023-05-19T03:02:23;100920.40;;;32.18;36.12
72794;BME280;63436;26.334;50.194;2023-05-19T03:04:49;100919.00;;;32.17;36.22
72794;BME280;63436;26.334;50.194;2023-05-19T03:07:15;100925.92;;;32.73;34.57
72794;BME280;63436;26.334;50.194;2023-05-19T03:09:41;100938.21;;;32.77;34.28
72794;BME280;63436;26.334;50.194;2023-05-19T03:12:08;100934.49;;;32.73;34.84
72794;BME280;63436;26.334;50.194;2023-05-19T03:14:35;100937.20;;;33.10;32.87
72794;BME280;63436;26.334;50.194;2023-05-19T03:17:00;100937.24;;;31.94;34.02
72794;BME280;63436;26.334;50.194;2023-05-19T03:19:26;100944.23;;;31.90;34.68
72794;BME280;63436;26.334;50.194;2023-05-19T03:21:53;100948.59;;;32.42;34.74
72794;BME280;63436;26.334;50.194;2023-05-19T03:24:18;100949.17;;;31.47;35.38
72794;BME280;63436;26.334;50.194;2023-05-19T03:26:44;100950.40;;;32.21;33.94
72794;BME280;63436;26.334;50.194;2023-05-19T03:29:11;100948.93;;;32.24;33.39
72794;BME280;63436;26.334;50.194;2023-05-19T03:31:37;100942.55;;;32.15;33.22
72794;BME280;63436;26.334;50.194;2023-05-19T03:34:04;100949.36;;;32.23;31.60
72794;BME280;63436;26.334;50.194;2023-05-19T03:36:30;100950.90;;;32.27;30.89
72794;BME280;63436;26.334;50.194;2023-05-19T03:38:56;100960.50;;;33.40;28.91
72794;BME280;63436;26.334;50.194;2023-05-19T03:41:22;100968.33;;;33.46;28.75
72794;BME280;63436;26.334;50.194;2023-05-19T03:43:48;100957.20;;;32.49;30.29
72794;BME280;63436;26.334;50.194;2023-05-19T03:46:15;100948.68;;;32.08;30.73
72794;BME280;63436;26.334;50.194;2023-05-19T03:48:41;100953.64;;;32.16;30.40
72794;BME280;63436;26.334;50.194;2023-05-19T03:51:12;100954.26;;;32.52;30.28
72794;BME280;63436;26.334;50.194;2023-05-19T03:53:32;100941.42;;;32.27;31.02
72794;BME280;63436;26.334;50.194;2023-05-19T03:55:59;100939.39;;;32.07;30.34
72794;BME280;63436;26.334;50.194;2023-05-19T03:58:25;100953.06;;;32.25;30.05
72794;BME280;63436;26.334;50.194;2023-05-19T04:00:51;100958.46;;;32.40;29.98
72794;BME280;63436;26.334;50.194;2023-05-19T04:03:17;100957.56;;;32.14;30.75
72794;BME280;63436;26.334;50.194;2023-05-19T04:05:43;100953.51;;;32.21;30.90
72794;BME280;63436;26.334;50.194;2023-05-19T04:08:10;100942.04;;;32.52;30.31
72794;BME280;63436;26.334;50.194;2023-05-19T04:10:36;100938.92;;;32.34;30.78
72794;BME280;63436;26.334;50.194;2023-05-19T04:13:02;100933.52;;;31.99;30.62
72794;BME280;63436;26.334;50.194;2023-05-19T04:15:28;100930.82;;;32.08;30.44
72794;BME280;63436;26.334;50.194;2023-05-19T04:17:55;100929.06;;;31.84;30.47
72794;BME280;63436;26.334;50.194;2023-05-19T04:20:20;100936.34;;;32.23;30.23
72794;BME280;63436;26.334;50.194;2023-05-19T04:22:46;100935.95;;;32.40;29.70
72794;BME280;63436;26.334;50.194;2023-05-19T04:25:13;100947.66;;;32.23;30.12
72794;BME280;63436;26.334;50.194;2023-05-19T04:27:39;100964.84;;;32.49;29.19
72794;BME280;63436;26.334;50.194;2023-05-19T04:30:06;100970.97;;;32.83;28.95
72794;BME280;63436;26.334;50.194;2023-05-19T04:32:31;100962.71;;;32.95;29.20
72794;BME280;63436;26.334;50.194;2023-05-19T04:34:58;100944.64;;;33.19;29.51
72794;BME280;63436;26.334;50.194;2023-05-19T04:37:23;100946.03;;;32.86;29.09
72794;BME280;63436;26.334;50.194;2023-05-19T04:39:49;100949.31;;;32.85;26.75
72794;BME280;63436;26.334;50.194;2023-05-19T04:42:16;100961.45;;;33.20;26.05
72794;BME280;63436;26.334;50.194;2023-05-19T04:44:42;100980.55;;;33.45;25.68
72794;BME280;63436;26.334;50.194;2023-05-19T04:47:08;100981.60;;;33.72;25.17
72794;BME280;63436;26.334;50.194;2023-05-19T04:49:34;100978.92;;;33.17;26.00
72794;BME280;63436;26.334;50.194;2023-05-19T04:51:59;100978.27;;;33.36;26.27
72794;BME280;63436;26.334;50.194;2023-05-19T04:54:26;100980.95;;;32.96;26.89
72794;BME280;63436;26.334;50.194;2023-05-19T04:56:52;100989.16;;;33.10;26.46
72794;BME280;63436;26.334;50.194;2023-05-19T04:59:18;100988.32;;;33.09;27.30
72794;BME280;63436;26.334;50.194;2023-05-19T05:01:44;100991.34;;;32.62;27.35
72794;BME280;63436;26.334;50.194;2023-05-19T05:04:10;100980.27;;;32.60;27.31
72794;BME280;63436;26.334;50.194;2023-05-19T05:06:36;100979.84;;;32.38;27.38
72794;BME280;63436;26.334;50.194;2023-05-19T05:09:03;100999.60;;;33.90;25.13
72794;BME280;63436;26.334;50.194;2023-05-19T05:11:29;101006.44;;;33.54;25.22
72794;BME280;63436;26.334;50.194;2023-05-19T05:13:55;101009.82;;;33.22;25.69
72794;BME280;63436;26.334;50.194;2023-05-19T05:16:21;101000.18;;;32.96;25.45
72794;BME280;63436;26.334;50.194;2023-05-19T05:18:48;101001.73;;;32.71;24.80
72794;BME280;63436;26.334;50.194;2023-05-19T05:21:14;101016.40;;;33.09;23.88
72794;BME280;63436;26.334;50.194;2023-05-19T05:23:41;101028.49;;;33.41;24.20
72794;BME280;63436;26.334;50.194;2023-05-19T05:26:15;101024.61;;;32.79;24.70
72794;BME280;63436;26.334;50.194;2023-05-19T05:28:32;101019.91;;;33.50;24.43
72794;BME280;63436;26.334;50.194;2023-05-19T05:30:58;101025.17;;;32.67;23.30
72794;BME280;63436;26.334;50.194;2023-05-19T05:33:24;101025.17;;;33.19;22.42
72794;BME280;63436;26.334;50.194;2023-05-19T05:35:51;101032.78;;;32.80;24.94
72794;BME280;63436;26.334;50.194;2023-05-19T05:38:17;101033.83;;;33.29;24.20
72794;BME280;63436;26.334;50.194;2023-05-19T05:40:44;101042.04;;;33.75;24.06
72794;BME280;63436;26.334;50.194;2023-05-19T05:43:09;101040.94;;;33.55;24.23
72794;BME280;63436;26.334;50.194;2023-05-19T05:45:36;101041.33;;;33.16;26.19
72794;BME280;63436;26.334;50.194;2023-05-19T05:48:02;101040.62;;;33.09;24.87
72794;BME280;63436;26.334;50.194;2023-05-19T05:50:29;101041.45;;;33.22;24.06
72794;BME280;63436;26.334;50.194;2023-05-19T05:52:57;101048.15;;;33.16;24.28
72794;BME280;63436;26.334;50.194;2023-05-19T05:55:22;101043.07;;;33.03;24.91
72794;BME280;63436;26.334;50.194;2023-05-19T05:57:48;101040.66;;;33.71;25.61
72794;BME280;63436;26.334;50.194;2023-05-19T06:00:14;101038.58;;;33.03;25.46
72794;BME280;63436;26.334;50.194;2023-05-19T06:02:41;101032.74;;;33.39;24.95
72794;BME280;63436;26.334;50.194;2023-05-19T06:05:06;101036.53;;;33.49;26.15
72794;BME280;63436;26.334;50.194;2023-05-19T06:07:32;101037.83;;;33.77;25.26
72794;BME280;63436;26.334;50.194;2023-05-19T06:09:58;101033.74;;;33.87;24.53
72794;BME280;63436;26.334;50.194;2023-05-19T06:12:25;101027.87;;;34.22;22.21
72794;BME280;63436;26.334;50.194;2023-05-19T06:14:51;101024.74;;;33.69;22.25
72794;BME280;63436;26.334;50.194;2023-05-19T06:17:17;101023.04;;;33.63;22.72
72794;BME280;63436;26.334;50.194;2023-05-19T06:19:43;101027.37;;;33.34;22.12
72794;BME280;63436;26.334;50.194;2023-05-19T06:22:09;101029.20;;;34.12;21.44
72794;BME280;63436;26.334;50.194;2023-05-19T06:24:36;101026.26;;;33.57;21.59
72794;BME280;63436;26.334;50.194;2023-05-19T06:27:01;101030.04;;;33.79;20.80
72794;BME280;63436;26.334;50.194;2023-05-19T06:29:27;101020.20;;;33.32;20.48
72794;BME280;63436;26.334;50.194;2023-05-19T06:31:53;101015.68;;;33.22;20.73
72794;BME280;63436;26.334;50.194;2023-05-19T06:34:20;101013.14;;;34.59;19.14
72794;BME280;63436;26.334;50.194;2023-05-19T06:36:46;101007.90;;;34.38;19.28
72794;BME280;63436;26.334;50.194;2023-05-19T06:39:12;101013.04;;;33.80;20.80
72794;BME280;63436;26.334;50.194;2023-05-19T06:41:38;100999.47;;;34.24;19.67
72794;BME280;63436;26.334;50.194;2023-05-19T06:44:05;100994.05;;;33.88;20.27
72794;BME280;63436;26.334;50.194;2023-05-19T06:46:30;100985.03;;;34.19;20.09
72794;BME280;63436;26.334;50.194;2023-05-19T06:48:56;100989.70;;;34.12;20.47
72794;BME280;63436;26.334;50.194;2023-05-19T06:51:22;100990.44;;;33.88;24.43
72794;BME280;63436;26.334;50.194;2023-05-19T06:53:49;100999.60;;;33.83;25.73
72794;BME280;63436;26.334;50.194;2023-05-19T06:56:14;101009.45;;;33.10;26.80
72794;BME280;63436;26.334;50.194;2023-05-19T06:58:41;101003.49;;;34.29;24.57
72794;BME280;63436;26.334;50.194;2023-05-19T07:01:07;100997.72;;;33.08;24.34
72794;BME280;63436;26.334;50.194;2023-05-19T07:03:33;100989.41;;;34.32;22.33
72794;BME280;63436;26.334;50.194;2023-05-19T07:06:00;100991.84;;;33.80;22.27
72794;BME280;63436;26.334;50.194;2023-05-19T07:08:26;100986.18;;;34.45;21.29
72794;BME280;63436;26.334;50.194;2023-05-19T07:10:52;100988.37;;;34.53;21.72
72794;BME280;63436;26.334;50.194;2023-05-19T07:13:18;100993.93;;;34.99;21.03
72794;BME280;63436;26.334;50.194;2023-05-19T07:15:45;101001.09;;;33.86;21.38
72794;BME280;63436;26.334;50.194;2023-05-19T07:18:11;100996.32;;;33.74;20.66
72794;BME280;63436;26.334;50.194;2023-05-19T07:20:37;101004.69;;;34.01;21.32
72794;BME280;63436;26.334;50.194;2023-05-19T07:23:03;101009.87;;;33.72;21.32
72794;BME280;63436;26.334;50.194;2023-05-19T07:25:28;101005.11;;;33.31;22.70
72794;BME280;63436;26.334;50.194;2023-05-19T07:27:53;101003.99;;;32.03;21.97
72794;BME280;63436;26.334;50.194;2023-05-19T07:30:19;100996.76;;;33.39;21.68
72794;BME280;63436;26.334;50.194;2023-05-19T07:32:44;101001.52;;;33.76;20.23
72794;BME280;63436;26.334;50.194;2023-05-19T07:35:09;101013.11;;;33.01;20.00
72794;BME280;63436;26.334;50.194;2023-05-19T07:37:35;101008.89;;;33.77;19.80
72794;BME280;63436;26.334;50.194;2023-05-19T07:40:01;101006.26;;;34.04;20.09
72794;BME280;63436;26.334;50.194;2023-05-19T07:42:26;100989.29;;;33.96;19.29
72794;BME280;63436;26.334;50.194;2023-05-19T07:44:52;100984.02;;;34.52;19.55
72794;BME280;63436;26.334;50.194;2023-05-19T07:47:17;101006.62;;;34.45;19.14
72794;BME280;63436;26.334;50.194;2023-05-19T07:49:42;100997.00;;;34.70;19.14
72794;BME280;63436;26.334;50.194;2023-05-19T07:52:08;100984.89;;;34.28;18.65
72794;BME280;63436;26.334;50.194;2023-05-19T07:54:34;100979.72;;;33.70;20.14
72794;BME280;63436;26.334;50.194;2023-05-19T07:57:00;100977.38;;;33.51;20.85
72794;BME280;63436;26.334;50.194;2023-05-19T07:59:27;100969.50;;;33.64;20.07
72794;BME280;63436;26.334;50.194;2023-05-19T08:01:52;100955.72;;;33.65;20.85
72794;BME280;63436;26.334;50.194;2023-05-19T08:04:19;100946.12;;;33.57;21.79
72794;BME280;63436;26.334;50.194;2023-05-19T08:06:44;100927.62;;;33.51;21.38
72794;BME280;63436;26.334;50.194;2023-05-19T08:09:10;100917.05;;;33.21;20.23
72794;BME280;63436;26.334;50.194;2023-05-19T08:11:36;100927.26;;;32.38;21.65
72794;BME280;63436;26.334;50.194;2023-05-19T08:14:03;100923.02;;;32.01;21.80
72794;BME280;63436;26.334;50.194;2023-05-19T08:16:28;100924.93;;;31.46;21.86
72794;BME280;63436;26.334;50.194;2023-05-19T08:18:55;100930.02;;;32.03;22.37
72794;BME280;63436;26.334;50.194;2023-05-19T08:21:21;100921.84;;;32.71;21.14
72794;BME280;63436;26.334;50.194;2023-05-19T08:23:46;100907.36;;;32.05;21.41
72794;BME280;63436;26.334;50.194;2023-05-19T08:26:11;100906.25;;;33.10;20.53
72794;BME280;63436;26.334;50.194;2023-05-19T08:28:39;100900.21;;;33.84;19.91
72794;BME280;63436;26.334;50.194;2023-05-19T08:31:04;100898.06;;;32.64;21.03
72794;BME280;63436;26.334;50.194;2023-05-19T08:33:30;100876.11;;;31.80;22.28
72794;BME280;63436;26.334;50.194;2023-05-19T08:35:57;100873.20;;;32.51;21.46
72794;BME280;63436;26.334;50.194;2023-05-19T08:38:23;100867.14;;;31.95;21.95
72794;BME280;63436;26.334;50.194;2023-05-19T08:40:49;100876.81;;;32.07;21.79
72794;BME280;63436;26.334;50.194;2023-05-19T08:43:16;100874.30;;;33.35;20.65
72794;BME280;63436;26.334;50.194;2023-05-19T08:45:43;100880.73;;;32.91;21.97
72794;BME280;63436;26.334;50.194;2023-05-19T08:48:07;100866.62;;;32.47;21.55
72794;BME280;63436;26.334;50.194;2023-05-19T08:50:38;100865.64;;;33.03;20.93
72794;BME280;63436;26.334;50.194;2023-05-19T08:53:03;100877.01;;;33.60;19.92
72794;BME280;63436;26.334;50.194;2023-05-19T08:55:32;100882.64;;;33.81;20.65
72794;BME280;63436;26.334;50.194;2023-05-19T08:57:53;100885.71;;;33.39;20.74
72794;BME280;63436;26.334;50.194;2023-05-19T09:00:18;100894.53;;;33.10;20.98
72794;BME280;63436;26.334;50.194;2023-05-19T09:02:46;100905.82;;;33.00;22.07
72794;BME280;63436;26.334;50.194;2023-05-19T09:05:11;100913.89;;;34.02;21.25
72794;BME280;63436;26.334;50.194;2023-05-19T09:07:37;100924.49;;;32.90;22.58
72794;BME280;63436;26.334;50.194;2023-05-19T09:10:03;100923.11;;;34.37;19.52
72794;BME280;63436;26.334;50.194;2023-05-19T09:12:29;100919.52;;;34.03;20.87
72794;BME280;63436;26.334;50.194;2023-05-19T09:14:55;100918.15;;;33.44;22.07
72794;BME280;63436;26.334;50.194;2023-05-19T09:17:21;100922.28;;;32.77;22.60
72794;BME280;63436;26.334;50.194;2023-05-19T09:19:47;100937.58;;;33.22;21.33
72794;BME280;63436;26.334;50.194;2023-05-19T09:22:14;100934.10;;;34.00;20.66
72794;BME280;63436;26.334;50.194;2023-05-19T09:24:40;100940.02;;;33.93;20.69
72794;BME280;63436;26.334;50.194;2023-05-19T09:27:06;100937.38;;;32.56;22.34
72794;BME280;63436;26.334;50.194;2023-05-19T09:29:32;100942.56;;;34.34;21.34
72794;BME280;63436;26.334;50.194;2023-05-19T09:31:58;100944.65;;;35.46;20.30
72794;BME280;63436;26.334;50.194;2023-05-19T09:34:24;100931.75;;;35.64;19.12
72794;BME280;63436;26.334;50.194;2023-05-19T09:36:50;100926.43;;;35.07;20.13
72794;BME280;63436;26.334;50.194;2023-05-19T09:39:18;100931.09;;;35.01;19.59
72794;BME280;63436;26.334;50.194;2023-05-19T09:41:43;100940.33;;;35.78;18.07
72794;BME280;63436;26.334;50.194;2023-05-19T09:44:12;100929.79;;;35.31;17.54
72794;BME280;63436;26.334;50.194;2023-05-19T09:46:34;100924.53;;;35.35;18.37
72794;BME280;63436;26.334;50.194;2023-05-19T09:49:07;100924.56;;;35.60;17.96
72794;BME280;63436;26.334;50.194;2023-05-19T09:51:27;100916.37;;;35.10;18.42
72794;BME280;63436;26.334;50.194;2023-05-19T09:53:53;100913.53;;;35.64;18.03
72794;BME280;63436;26.334;50.194;2023-05-19T09:56:19;100906.36;;;35.53;18.71
72794;BME280;63436;26.334;50.194;2023-05-19T09:58:45;100907.98;;;35.02;18.75
72794;BME280;63436;26.334;50.194;2023-05-19T10:01:10;100902.03;;;35.40;19.06
72794;BME280;63436;26.334;50.194;2023-05-19T10:03:38;100906.25;;;34.65;20.11
72794;BME280;63436;26.334;50.194;2023-05-19T10:06:03;100900.87;;;35.04;19.05
72794;BME280;63436;26.334;50.194;2023-05-19T10:08:34;100897.81;;;34.88;17.95
72794;BME280;63436;26.334;50.194;2023-05-19T10:10:54;100897.87;;;35.28;18.82
72794;BME280;63436;26.334;50.194;2023-05-19T10:13:20;100894.89;;;34.88;18.17
72794;BME280;63436;26.334;50.194;2023-05-19T10:15:46;100884.17;;;35.47;17.29
72794;BME280;63436;26.334;50.194;2023-05-19T10:18:11;100884.05;;;35.20;18.25
72794;BME280;63436;26.334;50.194;2023-05-19T10:20:38;100872.25;;;34.22;19.32
72794;BME280;63436;26.334;50.194;2023-05-19T10:23:04;100868.18;;;34.28;19.58
72794;BME280;63436;26.334;50.194;2023-05-19T10:25:30;100867.41;;;33.87;19.91
72794;BME280;63436;26.334;50.194;2023-05-19T10:27:59;100860.06;;;33.76;20.67
72794;BME280;63436;26.334;50.194;2023-05-19T10:30:24;100851.36;;;32.66;21.77
72794;BME280;63436;26.334;50.194;2023-05-19T10:32:48;100844.41;;;33.31;20.30
72794;BME280;63436;26.334;50.194;2023-05-19T10:37:45;100838.32;;;33.83;19.66
72794;BME280;63436;26.334;50.194;2023-05-19T10:40:11;100832.05;;;33.21;19.39
72794;BME280;63436;26.334;50.194;2023-05-19T10:42:39;100829.21;;;33.66;18.83
72794;BME280;63436;26.334;50.194;2023-05-19T10:45:04;100828.30;;;32.91;19.54
72794;BME280;63436;26.334;50.194;2023-05-19T10:47:25;100831.73;;;32.73;21.15
72794;BME280;63436;26.334;50.194;2023-05-19T10:49:52;100837.24;;;31.68;21.72
72794;BME280;63436;26.334;50.194;2023-05-19T10:52:19;100822.71;;;32.71;20.44
72794;BME280;63436;26.334;50.194;2023-05-19T10:54:43;100826.26;;;32.14;21.40
72794;BME280;63436;26.334;50.194;2023-05-19T10:57:14;100818.30;;;32.90;21.06
72794;BME280;63436;26.334;50.194;2023-05-19T10:59:36;100820.00;;;32.78;20.43
72794;BME280;63436;26.334;50.194;2023-05-19T11:02:03;100813.94;;;33.44;20.13
72794;BME280;63436;26.334;50.194;2023-05-19T11:04:38;100812.94;;;32.92;20.55
72794;BME280;63436;26.334;50.194;2023-05-19T11:06:53;100818.42;;;32.90;20.46
72794;BME280;63436;26.334;50.194;2023-05-19T11:09:18;100818.26;;;32.68;20.33
72794;BME280;63436;26.334;50.194;2023-05-19T11:11:46;100821.21;;;32.90;19.77
72794;BME280;63436;26.334;50.194;2023-05-19T11:14:10;100822.87;;;33.26;19.01
72794;BME280;63436;26.334;50.194;2023-05-19T11:16:35;100837.70;;;34.77;18.79
72794;BME280;63436;26.334;50.194;2023-05-19T11:19:00;100835.47;;;33.12;20.09
72794;BME280;63436;26.334;50.194;2023-05-19T11:23:51;100833.17;;;34.15;19.93
72794;BME280;63436;26.334;50.194;2023-05-19T11:28:42;100829.72;;;34.69;19.48
72794;BME280;63436;26.334;50.194;2023-05-19T11:31:10;100828.03;;;34.10;19.13
72794;BME280;63436;26.334;50.194;2023-05-19T11:33:35;100822.47;;;34.11;19.04
72794;BME280;63436;26.334;50.194;2023-05-19T11:35:59;100820.00;;;34.47;18.76
72794;BME280;63436;26.334;50.194;2023-05-19T11:38:26;100812.55;;;34.37;18.66
72794;BME280;63436;26.334;50.194;2023-05-19T11:40:53;100822.61;;;34.51;18.01
72794;BME280;63436;26.334;50.194;2023-05-19T11:43:15;100806.13;;;34.47;18.49
72794;BME280;63436;26.334;50.194;2023-05-19T11:45:41;100803.73;;;34.60;18.70
72794;BME280;63436;26.334;50.194;2023-05-19T11:48:10;100806.15;;;34.67;19.06
72794;BME280;63436;26.334;50.194;2023-05-19T11:50:33;100801.73;;;35.08;18.65
72794;BME280;63436;26.334;50.194;2023-05-19T11:53:00;100797.31;;;33.90;19.06
72794;BME280;63436;26.334;50.194;2023-05-19T11:55:25;100798.03;;;35.27;18.09
72794;BME280;63436;26.334;50.194;2023-05-19T11:57:55;100790.76;;;34.63;18.98
72794;BME280;63436;26.334;50.194;2023-05-19T12:00:16;100790.08;;;34.70;18.70
72794;BME280;63436;26.334;50.194;2023-05-19T12:02:43;100798.37;;;35.50;18.37
72794;BME280;63436;26.334;50.194;2023-05-19T12:05:17;100793.07;;;34.67;19.31
72794;BME280;63436;26.334;50.194;2023-05-19T12:07:36;100792.20;;;35.10;19.33
72794;BME280;63436;26.334;50.194;2023-05-19T12:10:00;100799.75;;;34.28;19.76
72794;BME280;63436;26.334;50.194;2023-05-19T12:12:28;100790.78;;;34.68;19.69
72794;BME280;63436;26.334;50.194;2023-05-19T12:14:53;100794.77;;;34.89;19.67
72794;BME280;63436;26.334;50.194;2023-05-19T12:17:19;100793.70;;;34.34;20.14
72794;BME280;63436;26.334;50.194;2023-05-19T12:19:46;100790.07;;;34.13;20.53
72794;BME280;63436;26.334;50.194;2023-05-19T12:22:11;100788.08;;;33.64;21.06
72794;BME280;63436;26.334;50.194;2023-05-19T12:24:36;100780.49;;;32.54;21.97
72794;BME280;63436;26.334;50.194;2023-05-19T12:27:08;100774.00;;;33.57;20.76
72794;BME280;63436;26.334;50.194;2023-05-19T12:29:28;100768.30;;;32.56;21.39
72794;BME280;63436;26.334;50.194;2023-05-19T12:31:54;100771.48;;;32.74;21.13
72794;BME280;63436;26.334;50.194;2023-05-19T12:34:20;100778.01;;;33.09;20.92
72794;BME280;63436;26.334;50.194;2023-05-19T12:36:45;100780.01;;;32.69;21.05
72794;BME280;63436;26.334;50.194;2023-05-19T12:39:12;100790.47;;;34.13;20.20
72794;BME280;63436;26.334;50.194;2023-05-19T12:41:37;100795.68;;;33.65;20.70
72794;BME280;63436;26.334;50.194;2023-05-19T12:44:13;100800.68;;;33.20;20.95
72794;BME280;63436;26.334;50.194;2023-05-19T12:46:32;100804.45;;;33.81;20.25
72794;BME280;63436;26.334;50.194;2023-05-19T12:48:58;100799.47;;;33.24;20.48